METAR AND TAF INFORMATION
METAR FOR SBMK
ADDS - METARS form results

(0157 UTC 23 July 2018)
Data provider http://aviationweather.gov/adds/metars/
 
METAR text: SBMK 230100Z 11006KT CAVOK 19/08 Q1023
Conditions at: SBMK (MONTES CLAROS , BR) observed 0100 UTC 23 July 2018
Temperature: 19.0°C (66°F)
Dewpoint: 8.0°C (46°F) [RH = 49%]
Pressure (altimeter): 30.21 inches Hg (1023.0 mb)
Winds: from the ESE (110 degrees) at 7 MPH (6 knots; 3.1 m/s)
Visibility: 6 or more miles (10+ km)
Ceiling: ceiling and visibility are OK
Clouds: unknown
Weather: no significant weather observed at this time

 AIRPORT MAP

 RUNWAY INFORMATION
Runway 12 Runway length 6890 ft Runway width 148 ft
Runway elevation 0 ft Runway displaced threshold 0 ft Runway heading 0
Runway 30 Runway length 6890 ft Runway width 148 ft
Runway elevation 0 ft Runway displaced threshold 0 ft Runway heading 0

 AIRPORT FREQUENCIES
Type AFIS Name RDO Frequency 131.7 MHZ

 AIRPORT NEAR NAVIGATION AIDS
Type NDB Name Montes Claros Frequency 310 KHZ



Powered by Virtual Airlines Manager [v2.6.2]